Time;durP1;ratioP1;P1;durP2;ratioP2;P2;SDS_P1;SDS_P2;PMS_P1;PMS_P2;Temp;Humidity;BMP_temperature;BMP_pressure;BME280_temperature;BME280_humidity;BME280_pressure;Samples;Min_cycle;Max_cycle;Signal;HPM_P1;HPM_P2
2022/09/22 00:01:54;;;;;;;5.38;4.95;;;7.60;99.90;;;;;;5058353;28;20219;-78
2022/09/22 00:04:21;;;;;;;5.63;5.15;;;7.60;99.90;;;;;;5058823;28;20215;-78
2022/09/22 00:06:50;;;;;;;6.05;5.45;;;7.60;99.90;;;;;;5058520;28;20199;-78
2022/09/22 00:09:19;;;;;;;4.95;4.60;;;7.60;99.90;;;;;;5058368;28;20255;-78
2022/09/22 00:11:49;;;;;;;6.68;5.10;;;7.60;99.90;;;;;;5058876;28;20619;-79
2022/09/22 00:14:19;;;;;;;5.40;5.10;;;7.50;99.90;;;;;;5057916;28;20207;-78
2022/09/22 00:16:48;;;;;;;5.35;4.85;;;7.50;99.90;;;;;;5059002;28;20229;-78
2022/09/22 00:19:17;;;;;;;5.15;4.70;;;7.50;99.90;;;;;;5058295;28;20213;-78
2022/09/22 00:21:44;;;;;;;4.72;4.38;;;7.50;99.90;;;;;;5057861;28;20217;-79
2022/09/22 00:24:11;;;;;;;5.40;4.90;;;7.40;99.90;;;;;;5058452;28;20206;-78
2022/09/22 00:26:39;;;;;;;5.20;4.80;;;7.40;99.90;;;;;;5057628;28;20232;-81
2022/09/22 00:29:09;;;;;;;5.85;5.22;;;7.40;99.90;;;;;;5053498;28;20198;-81
2022/09/22 00:31:37;;;;;;;4.95;4.45;;;7.40;99.90;;;;;;5054050;28;20260;-79
2022/09/22 00:34:04;;;;;;;4.65;4.32;;;7.40;99.90;;;;;;5054051;28;20291;-80
2022/09/22 00:36:31;;;;;;;6.28;5.10;;;7.40;99.90;;;;;;5054023;28;20205;-80
2022/09/22 00:38:58;;;;;;;5.65;5.07;;;7.30;99.90;;;;;;5053120;28;20215;-80
2022/09/22 00:41:27;;;;;;;8.52;5.35;;;7.30;99.90;;;;;;5052918;28;20209;-80
2022/09/22 00:44:32;;;;;;;6.18;5.63;;;7.30;99.90;;;;;;5054115;28;20275;-80
2022/09/22 00:47:02;;;;;;;5.70;5.20;;;7.30;99.90;;;;;;5053509;28;20197;-80
2022/09/22 00:49:36;;;;;;;6.13;5.63;;;7.20;99.90;;;;;;5053467;28;20815;-80
2022/09/22 00:52:04;;;;;;;6.50;6.00;;;7.20;99.90;;;;;;5053692;28;20220;-80
2022/09/22 00:54:31;;;;;;;6.63;6.05;;;7.20;99.90;;;;;;5053529;28;20209;-79
2022/09/22 00:57:05;;;;;;;5.28;4.97;;;7.20;99.90;;;;;;5053451;28;20197;-79
2022/09/22 00:59:33;;;;;;;6.03;5.40;;;7.20;99.90;;;;;;5053023;28;20209;-79
2022/09/22 01:02:00;;;;;;;4.93;4.53;;;7.20;99.90;;;;;;5033277;28;20223;-81
2022/09/22 01:07:49;;;;;;;6.55;6.00;;;7.10;99.90;;;;;;5032597;28;20655;-80
2022/09/22 01:10:16;;;;;;;5.63;5.22;;;7.10;99.90;;;;;;5047129;28;20573;-80
2022/09/22 01:12:50;;;;;;;5.90;5.40;;;7.10;99.90;;;;;;5053420;28;20760;-80
2022/09/22 01:15:31;;;;;;;8.38;5.55;;;7.10;99.90;;;;;;5053188;28;20205;-81
2022/09/22 01:18:11;;;;;;;6.68;5.97;;;7.10;99.90;;;;;;5052816;28;20280;-80
2022/09/22 01:21:13;;;;;;;6.72;6.13;;;7.10;99.90;;;;;;5052869;28;20249;-80
2022/09/22 01:24:14;;;;;;;6.25;5.75;;;7.10;99.90;;;;;;5046600;28;20212;-78
2022/09/22 01:27:01;;;;;;;7.18;5.75;;;7.00;99.90;;;;;;5035134;28;20220;-77
2022/09/22 01:29:44;;;;;;;6.28;5.78;;;7.00;99.90;;;;;;5041783;28;20212;-78
2022/09/22 01:32:17;;;;;;;5.95;5.45;;;7.00;99.90;;;;;;5055112;28;20317;-77
2022/09/22 01:34:49;;;;;;;7.70;5.85;;;7.00;99.90;;;;;;5054725;28;20213;-78
2022/09/22 01:37:20;;;;;;;6.28;5.72;;;7.00;99.90;;;;;;5054675;28;20225;-78
2022/09/22 01:39:53;;;;;;;5.00;4.70;;;7.00;99.90;;;;;;5053608;28;20202;-77
2022/09/22 01:42:26;;;;;;;6.90;6.13;;;7.00;99.90;;;;;;5054708;28;20230;-78
2022/09/22 01:44:58;;;;;;;7.93;6.97;;;7.00;99.90;;;;;;5054311;28;20592;-78
2022/09/22 01:47:31;;;;;;;6.15;5.65;;;6.90;99.90;;;;;;5054447;28;20206;-77
2022/09/22 01:50:02;;;;;;;8.02;6.25;;;6.90;99.90;;;;;;5054629;28;20224;-78
2022/09/22 01:52:32;;;;;;;5.53;5.03;;;6.90;99.90;;;;;;5054467;28;20218;-79
2022/09/22 01:55:02;;;;;;;7.35;6.55;;;6.90;99.90;;;;;;5054863;28;20588;-78
2022/09/22 01:57:37;;;;;;;6.20;5.57;;;6.90;99.90;;;;;;5054668;28;20293;-78
2022/09/22 02:00:08;;;;;;;5.45;5.00;;;6.80;99.90;;;;;;5054449;28;20208;-78
2022/09/22 02:02:42;;;;;;;6.57;5.85;;;6.80;99.90;;;;;;5054633;28;20304;-78
2022/09/22 02:05:14;;;;;;;5.82;5.43;;;6.80;99.90;;;;;;5054685;28;20261;-78
2022/09/22 02:07:45;;;;;;;6.68;5.85;;;6.80;99.90;;;;;;5054036;28;20205;-77
2022/09/22 02:10:16;;;;;;;5.88;5.38;;;6.80;99.90;;;;;;5055541;28;20220;-79
2022/09/22 02:12:43;;;;;;;7.30;6.70;;;6.80;99.90;;;;;;5056526;28;20229;-78
2022/09/22 02:17:56;;;;;;;6.05;5.65;;;6.70;99.90;;;;;;5055979;28;20214;-78
2022/09/22 02:20:24;;;;;;;5.47;5.03;;;6.70;99.90;;;;;;5056854;28;20202;-78
2022/09/22 02:22:51;;;;;;;5.85;5.45;;;6.60;99.90;;;;;;5056741;28;20218;-78
2022/09/22 02:25:18;;;;;;;7.63;7.03;;;6.60;99.90;;;;;;5057272;28;20210;-78
2022/09/22 02:27:46;;;;;;;6.28;5.07;;;6.60;99.90;;;;;;5056275;28;20213;-78
2022/09/22 02:30:14;;;;;;;9.63;6.53;;;6.60;99.90;;;;;;5055936;28;20225;-78
2022/09/22 02:32:46;;;;;;;8.70;6.47;;;6.60;99.90;;;;;;5056444;28;20226;-78
2022/09/22 02:35:14;;;;;;;6.30;5.80;;;6.50;99.90;;;;;;5056331;28;20213;-79
2022/09/22 02:37:48;;;;;;;6.82;6.30;;;6.50;99.90;;;;;;5056553;28;20224;-78
2022/09/22 02:40:26;;;;;;;6.80;6.25;;;6.50;99.90;;;;;;5056651;28;20196;-78
2022/09/22 02:43:00;;;;;;;6.32;5.72;;;6.50;99.90;;;;;;5056390;28;20582;-79
2022/09/22 02:45:31;;;;;;;5.72;5.10;;;6.50;99.90;;;;;;5056279;28;20205;-78
2022/09/22 02:48:02;;;;;;;8.90;6.10;;;6.40;99.90;;;;;;5056745;28;20193;-79
2022/09/22 02:50:31;;;;;;;6.32;5.20;;;6.40;99.90;;;;;;5057151;28;20209;-79
2022/09/22 02:53:03;;;;;;;7.13;6.53;;;6.40;99.90;;;;;;5060639;28;20270;-78
2022/09/22 02:55:30;;;;;;;5.63;5.20;;;6.40;99.90;;;;;;5060851;28;20206;-78
2022/09/22 02:57:57;;;;;;;6.25;5.60;;;6.40;99.90;;;;;;5060334;28;20237;-79
2022/09/22 03:00:23;;;;;;;6.18;5.70;;;6.40;99.90;;;;;;5060387;28;20205;-79
2022/09/22 03:02:50;;;;;;;5.50;4.55;;;6.40;99.90;;;;;;5060782;28;20233;-79
2022/09/22 03:05:17;;;;;;;6.25;5.68;;;6.40;99.90;;;;;;5060490;28;20202;-79
2022/09/22 03:07:45;;;;;;;6.10;5.50;;;6.40;99.90;;;;;;5060551;28;20205;-78
2022/09/22 03:10:12;;;;;;;5.45;4.95;;;6.30;99.90;;;;;;5060306;28;20234;-79
2022/09/22 03:12:41;;;;;;;6.10;5.60;;;6.30;99.90;;;;;;5060343;28;20304;-80
2022/09/22 03:15:09;;;;;;;5.72;5.25;;;6.30;99.90;;;;;;5060202;28;20220;-78
2022/09/22 03:17:36;;;;;;;5.50;5.00;;;6.30;99.90;;;;;;5059973;28;20656;-78
2022/09/22 03:20:03;;;;;;;6.03;5.63;;;6.30;99.90;;;;;;5059412;28;20202;-78
2022/09/22 03:22:30;;;;;;;5.82;5.32;;;6.30;99.90;;;;;;5059900;28;20230;-79
2022/09/22 03:24:58;;;;;;;5.65;5.10;;;6.30;99.90;;;;;;5060337;28;20209;-78
2022/09/22 03:27:26;;;;;;;5.50;5.00;;;6.30;99.90;;;;;;5060002;28;20201;-78
2022/09/22 03:29:53;;;;;;;5.80;5.05;;;6.30;99.90;;;;;;5059737;28;20228;-78
2022/09/22 03:32:20;;;;;;;5.50;5.07;;;6.30;99.90;;;;;;5059813;28;20230;-78
2022/09/22 03:34:47;;;;;;;5.82;5.38;;;6.30;99.90;;;;;;5060172;28;20201;-78
2022/09/22 03:37:14;;;;;;;6.13;5.65;;;6.30;99.90;;;;;;5059326;28;20589;-79
2022/09/22 03:39:40;;;;;;;5.53;5.00;;;6.30;99.90;;;;;;5055065;28;20312;-81
2022/09/22 03:42:09;;;;;;;5.30;4.90;;;6.20;99.90;;;;;;5055067;28;20237;-81
2022/09/22 03:44:36;;;;;;;6.13;5.55;;;6.30;99.90;;;;;;5055001;28;20206;-80
2022/09/22 03:47:03;;;;;;;5.72;5.25;;;6.20;99.90;;;;;;5054788;28;20213;-81
2022/09/22 03:49:30;;;;;;;6.20;5.70;;;6.30;99.90;;;;;;5054715;28;20233;-81
2022/09/22 03:51:57;;;;;;;5.32;4.65;;;6.20;99.90;;;;;;5054485;28;20317;-80
2022/09/22 03:54:24;;;;;;;4.60;4.20;;;6.20;99.90;;;;;;5054729;28;20433;-80
2022/09/22 03:56:51;;;;;;;4.85;4.40;;;6.20;99.90;;;;;;5054745;28;20197;-80
2022/09/22 03:59:19;;;;;;;5.35;4.85;;;6.20;99.90;;;;;;5054733;28;20230;-80
2022/09/22 04:01:46;;;;;;;5.63;5.13;;;6.20;99.90;;;;;;5054030;28;20218;-80
2022/09/22 04:04:12;;;;;;;6.32;5.47;;;6.20;99.90;;;;;;5054405;28;20217;-80
2022/09/22 04:06:39;;;;;;;5.47;5.07;;;6.20;99.90;;;;;;5054381;28;20610;-80
2022/09/22 04:09:06;;;;;;;5.55;4.35;;;6.20;99.90;;;;;;5054050;28;20194;-81
2022/09/22 04:11:33;;;;;;;4.90;4.38;;;6.20;99.90;;;;;;5054108;28;20218;-80
2022/09/22 04:14:00;;;;;;;4.97;4.65;;;6.20;99.90;;;;;;5054633;28;20232;-81
2022/09/22 04:16:28;;;;;;;5.78;5.28;;;6.20;99.90;;;;;;5054351;28;20212;-80
2022/09/22 04:18:55;;;;;;;5.47;5.03;;;6.20;99.90;;;;;;5053914;28;20264;-80
2022/09/22 04:21:22;;;;;;;5.13;4.82;;;6.10;99.90;;;;;;5053784;28;20198;-80
2022/09/22 04:23:49;;;;;;;5.03;4.30;;;6.10;99.90;;;;;;5054446;28;20783;-79
2022/09/22 04:26:15;;;;;;;5.03;4.63;;;6.10;99.90;;;;;;5053920;28;20206;-79
2022/09/22 04:28:42;;;;;;;6.57;5.90;;;6.10;99.90;;;;;;5053560;28;20208;-79
2022/09/22 04:31:09;;;;;;;5.95;5.45;;;6.10;99.90;;;;;;5053777;28;20202;-80
2022/09/22 04:33:37;;;;;;;6.90;6.30;;;6.10;99.90;;;;;;5054160;28;20212;-79
2022/09/22 04:36:04;;;;;;;8.15;5.57;;;6.00;99.90;;;;;;5053577;28;20638;-79
2022/09/22 04:38:30;;;;;;;6.90;6.30;;;6.00;99.90;;;;;;5053643;28;20233;-79
2022/09/22 04:40:57;;;;;;;7.45;6.93;;;6.00;99.90;;;;;;5053548;28;20201;-79
2022/09/22 04:43:24;;;;;;;7.05;6.30;;;6.00;99.90;;;;;;5052974;28;20234;-80
2022/09/22 04:45:51;;;;;;;5.55;5.05;;;6.00;99.90;;;;;;5054347;28;20198;-78
2022/09/22 04:48:17;;;;;;;6.57;5.43;;;6.00;99.90;;;;;;5084052;22;20602;-83
2022/09/22 04:50:46;;;;;;;5.72;5.22;;;6.00;99.90;;;;;;5073347;28;20205;-82
2022/09/22 04:53:13;;;;;;;6.35;5.75;;;6.00;99.90;;;;;;5074259;28;20198;-83
2022/09/22 04:55:39;;;;;;;5.95;5.45;;;6.00;99.90;;;;;;5073826;28;20209;-83
2022/09/22 04:58:06;;;;;;;5.40;5.00;;;6.00;99.90;;;;;;5058315;28;20226;-83
2022/09/22 05:00:33;;;;;;;7.30;6.28;;;6.00;99.90;;;;;;5036408;28;20712;-82
2022/09/22 05:03:00;;;;;;;5.65;5.15;;;5.90;99.90;;;;;;5033807;28;20254;-84
2022/09/22 05:05:28;;;;;;;5.82;5.32;;;5.90;99.90;;;;;;5050596;28;20208;-82
2022/09/22 05:07:56;;;;;;;6.38;5.75;;;5.90;99.90;;;;;;5053605;28;20598;-82
2022/09/22 05:10:24;;;;;;;6.40;5.80;;;5.90;99.90;;;;;;5053732;28;20535;-83
2022/09/22 05:12:52;;;;;;;5.25;4.75;;;5.90;99.90;;;;;;5053708;28;20205;-83
2022/09/22 05:15:19;;;;;;;6.10;5.50;;;5.90;99.90;;;;;;5039322;28;20263;-83
2022/09/22 05:17:46;;;;;;;6.30;5.68;;;5.90;99.90;;;;;;5033775;28;20253;-82
2022/09/22 05:20:13;;;;;;;4.90;4.60;;;5.90;99.90;;;;;;5036436;28;20707;-84
2022/09/22 05:22:40;;;;;;;5.72;5.32;;;5.90;99.90;;;;;;5038977;28;20229;-83
2022/09/22 05:25:14;;;;;;;5.47;5.00;;;5.90;99.90;;;;;;5052117;28;20224;-83
2022/09/22 05:27:44;;;;;;;5.90;5.30;;;5.90;99.90;;;;;;5059842;28;20229;-85
2022/09/22 05:30:11;;;;;;;6.63;6.05;;;6.00;99.90;;;;;;5046794;28;20199;-84
2022/09/22 05:32:38;;;;;;;6.38;5.78;;;5.90;99.90;;;;;;5043387;28;20228;-83
2022/09/22 05:35:06;;;;;;;6.97;5.40;;;5.90;99.90;;;;;;5041179;28;20221;-83
2022/09/22 05:37:32;;;;;;;6.60;5.07;;;6.00;99.90;;;;;;5043376;28;20222;-84
2022/09/22 05:39:59;;;;;;;5.15;4.85;;;6.00;99.90;;;;;;5048451;28;20226;-83
2022/09/22 05:42:27;;;;;;;6.55;5.85;;;6.00;99.90;;;;;;5042489;28;20205;-83
2022/09/22 05:44:54;;;;;;;5.90;5.30;;;6.00;99.90;;;;;;5059382;28;20233;-84
2022/09/22 05:47:21;;;;;;;8.30;7.03;;;6.10;99.90;;;;;;5059210;28;20241;-82
2022/09/22 05:49:47;;;;;;;8.55;5.90;;;6.10;99.90;;;;;;5058204;28;20209;-84
2022/09/22 05:52:14;;;;;;;5.90;5.40;;;6.10;99.90;;;;;;5055103;28;20217;-82
2022/09/22 05:54:41;;;;;;;6.32;5.72;;;6.20;99.90;;;;;;5034077;28;20217;-82
2022/09/22 05:57:09;;;;;;;6.60;6.10;;;6.20;99.90;;;;;;5039404;28;20221;-84
2022/09/22 05:59:37;;;;;;;9.20;6.50;;;6.20;99.90;;;;;;5053922;28;20772;-84
2022/09/22 06:02:07;;;;;;;6.82;6.13;;;6.30;99.90;;;;;;5046634;28;20595;-83
2022/09/22 06:04:34;;;;;;;6.43;5.93;;;6.30;99.90;;;;;;5038752;28;20293;-83
2022/09/22 06:07:01;;;;;;;6.25;5.78;;;6.40;99.90;;;;;;5035520;28;20235;-83
2022/09/22 06:09:27;;;;;;;6.50;5.90;;;6.40;99.90;;;;;;5035866;28;20194;-83
2022/09/22 06:11:54;;;;;;;7.78;6.05;;;6.50;99.90;;;;;;5045615;28;20201;-83
2022/09/22 06:14:26;;;;;;;7.63;6.75;;;6.50;99.90;;;;;;5038058;28;20206;-84
2022/09/22 06:16:56;;;;;;;6.43;5.93;;;6.50;99.90;;;;;;5035507;28;20226;-83
2022/09/22 06:19:23;;;;;;;7.05;6.35;;;6.60;99.90;;;;;;5036692;28;20234;-83
2022/09/22 06:21:51;;;;;;;7.85;7.22;;;6.60;99.90;;;;;;5036008;28;20210;-83
2022/09/22 06:24:18;;;;;;;7.60;6.90;;;6.70;99.90;;;;;;5044611;28;20205;-82
2022/09/22 06:26:45;;;;;;;8.20;7.40;;;6.80;99.90;;;;;;5045803;28;20225;-83
2022/09/22 06:29:12;;;;;;;7.93;7.22;;;6.80;99.90;;;;;;5046653;28;20729;-83
2022/09/22 06:31:39;;;;;;;7.82;7.05;;;6.90;99.90;;;;;;5046503;28;20607;-85
2022/09/22 06:34:10;;;;;;;7.72;7.13;;;7.00;99.90;;;;;;5050932;28;20202;-83
2022/09/22 06:36:37;;;;;;;7.88;5.93;;;7.10;99.90;;;;;;5043066;28;20260;-84
2022/09/22 06:39:04;;;;;;;7.97;6.95;;;7.20;99.90;;;;;;5043099;28;20634;-84
2022/09/22 06:41:33;;;;;;;11.20;10.20;;;7.30;99.90;;;;;;5042951;28;20609;-84
2022/09/22 06:44:00;;;;;;;8.15;7.35;;;7.40;99.90;;;;;;5045551;28;20203;-84
2022/09/22 06:46:28;;;;;;;8.80;8.00;;;7.50;99.90;;;;;;5041756;28;20202;-84
2022/09/22 06:48:56;;;;;;;9.38;8.57;;;7.60;99.90;;;;;;5042292;28;20211;-84
2022/09/22 06:51:29;;;;;;;9.10;7.45;;;7.70;99.90;;;;;;5042634;28;20274;-79
2022/09/22 06:53:56;;;;;;;8.82;8.05;;;7.90;99.90;;;;;;5045106;28;20203;-80
2022/09/22 06:59:47;;;;;;;7.78;6.47;;;8.10;99.90;;;;;;5033366;28;20230;-81
2022/09/22 07:02:26;;;;;;;8.18;7.35;;;8.30;99.90;;;;;;5044664;28;20204;-85
2022/09/22 07:05:01;;;;;;;8.80;7.13;;;8.30;99.90;;;;;;5051827;28;20229;-87
2022/09/22 07:08:04;;;;;;;6.63;6.00;;;8.50;99.90;;;;;;5051997;28;20568;-86
2022/09/22 07:10:33;;;;;;;6.47;5.97;;;8.60;99.90;;;;;;5032675;28;20465;-87
2022/09/22 07:13:00;;;;;;;6.18;5.57;;;8.70;99.90;;;;;;5043881;28;20228;-82
2022/09/22 07:19:37;;;;;;;6.83;5.47;;;8.90;99.90;;;;;;5030463;28;20219;-88
2022/09/22 07:22:05;;;;;;;6.20;5.70;;;9.00;99.90;;;;;;5044950;28;20485;-81
2022/09/22 07:24:33;;;;;;;5.40;5.00;;;9.10;99.90;;;;;;5050624;28;20241;-81
2022/09/22 07:27:03;;;;;;;5.70;5.20;;;9.20;99.90;;;;;;5049547;28;20558;-81
2022/09/22 07:29:31;;;;;;;5.07;4.40;;;9.30;99.90;;;;;;5049372;28;20454;-81
2022/09/22 07:31:58;;;;;;;5.97;4.83;;;9.40;99.90;;;;;;5034050;28;20463;-81
2022/09/22 07:34:25;;;;;;;6.23;5.73;;;9.50;99.90;;;;;;5042564;28;20456;-80
2022/09/22 07:36:53;;;;;;;4.87;4.50;;;9.60;99.90;;;;;;5032583;28;21087;-85
2022/09/22 08:08:01;;;;;;;4.63;4.20;;;10.70;99.90;;;;;;4804888;29;20474;-89
2022/09/22 08:10:37;;;;;;;6.17;4.80;;;10.90;99.90;;;;;;4908528;28;20466;-84
2022/09/22 08:13:21;;;;;;;4.17;3.87;;;11.00;99.90;;;;;;5026131;28;20458;-89
2022/09/22 08:15:55;;;;;;;4.30;3.90;;;11.20;99.90;;;;;;5033626;28;20465;-89
2022/09/22 08:18:28;;;;;;;4.03;3.57;;;11.20;99.90;;;;;;5057887;28;20478;-91
2022/09/22 08:20:55;;;;;;;5.33;4.00;;;11.30;99.90;;;;;;5063158;28;20484;-89
2022/09/22 08:23:22;;;;;;;4.50;4.20;;;11.40;99.90;;;;;;5054209;28;20459;-89
2022/09/22 08:25:50;;;;;;;4.27;3.87;;;11.60;99.90;;;;;;5054261;28;20464;-90
2022/09/22 08:28:17;;;;;;;4.43;3.87;;;11.70;99.90;;;;;;5053820;28;20473;-90
2022/09/22 08:30:45;;;;;;;3.30;2.97;;;11.80;99.90;;;;;;5054925;28;20460;-89
2022/09/22 08:33:13;;;;;;;5.53;4.40;;;11.90;99.90;;;;;;5069046;28;20456;-88
2022/09/22 08:36:02;;;;;;;2.90;2.70;;;12.00;99.90;;;;;;5071727;28;20439;-90
2022/09/22 08:38:48;;;;;;;3.33;3.10;;;12.10;99.90;;;;;;5041095;28;20476;-91
2022/09/22 08:41:23;;;;;;;3.70;3.27;;;12.20;99.90;;;;;;5033887;28;20671;-91
2022/09/22 08:46:37;;;;;;;3.83;2.90;;;12.40;99.90;;;;;;5036783;28;20461;-82
2022/09/22 08:55:29;;;;;;;3.03;2.77;;;12.80;99.90;;;;;;5053636;28;20486;-87
2022/09/22 08:58:06;;;;;;;3.90;3.63;;;13.00;99.90;;;;;;5041021;28;21008;-83
2022/09/22 09:01:29;;;;;;;2.37;2.27;;;13.00;99.90;;;;;;5041705;28;20570;-87
2022/09/22 09:04:47;;;;;;;3.17;2.97;;;13.20;99.90;;;;;;5046157;28;20449;-87
2022/09/22 09:10:20;;;;;;;2.50;2.30;;;13.50;99.90;;;;;;5034553;28;20446;-86
2022/09/22 09:13:11;;;;;;;2.43;2.23;;;13.60;99.90;;;;;;5048558;28;20449;-85
2022/09/22 09:32:08;;;;;;;4.10;2.90;;;14.40;98.70;;;;;;5044928;28;20455;-84
2022/09/22 09:34:34;;;;;;;2.20;2.00;;;14.60;98.80;;;;;;5053155;28;20456;-83
2022/09/22 09:37:08;;;;;;;3.50;2.40;;;14.70;98.80;;;;;;5033682;28;20481;-85
2022/09/22 09:39:56;;;;;;;2.30;2.20;;;14.80;98.50;;;;;;5033081;28;21010;-86
2022/09/22 09:42:54;;;;;;;1.93;1.83;;;14.90;98.30;;;;;;5032540;28;20811;-85
2022/09/22 09:45:30;;;;;;;2.23;2.10;;;15.10;98.20;;;;;;5045871;28;20822;-86
2022/09/22 09:48:10;;;;;;;1.90;1.80;;;15.20;97.40;;;;;;5033209;28;20470;-86
2022/09/22 09:50:38;;;;;;;3.43;2.00;;;15.30;97.00;;;;;;5040168;28;20525;-86
2022/09/22 09:53:05;;;;;;;2.23;2.03;;;15.50;97.00;;;;;;5033509;28;20453;-86
2022/09/22 09:55:34;;;;;;;2.03;1.87;;;15.60;96.20;;;;;;5032143;28;20458;-85
2022/09/22 09:58:09;;;;;;;2.87;2.63;;;15.60;95.80;;;;;;5032488;28;20475;-87
2022/09/22 10:00:54;;;;;;;1.60;1.40;;;15.70;95.40;;;;;;5031298;28;20482;-86
2022/09/22 10:03:27;;;;;;;1.97;1.87;;;15.80;95.80;;;;;;5033921;28;20533;-86
2022/09/22 10:06:01;;;;;;;2.13;2.03;;;16.00;94.90;;;;;;5033683;28;20448;-86
2022/09/22 10:08:30;;;;;;;1.70;1.60;;;16.10;94.40;;;;;;5039049;28;20477;-87
2022/09/22 10:11:00;;;;;;;5.43;2.10;;;16.20;94.50;;;;;;5041507;28;20456;-86
2022/09/22 10:13:35;;;;;;;2.70;1.80;;;16.40;94.40;;;;;;5042315;28;20458;-86
2022/09/22 10:16:06;;;;;;;1.70;1.60;;;16.50;94.60;;;;;;5051784;28;20466;-86
2022/09/22 10:18:40;;;;;;;2.40;2.20;;;16.60;93.50;;;;;;5042875;28;20995;-87
2022/09/22 10:21:15;;;;;;;3.70;1.90;;;16.80;93.40;;;;;;5044281;28;20493;-87
2022/09/22 10:26:26;;;;;;;1.70;1.60;;;17.20;93.80;;;;;;5037523;28;20459;-87
2022/09/22 10:29:19;;;;;;;2.10;2.00;;;17.30;93.50;;;;;;5051563;28;20444;-86
2022/09/22 10:32:13;;;;;;;2.53;1.83;;;17.60;92.50;;;;;;5045917;28;20781;-88
2022/09/22 10:34:45;;;;;;;1.73;1.63;;;17.70;91.40;;;;;;5034426;28;20960;-88
2022/09/22 10:37:13;;;;;;;1.63;1.53;;;17.90;91.20;;;;;;5051498;28;20980;-87
2022/09/22 10:39:45;;;;;;;1.67;1.57;;;18.00;90.80;;;;;;5043058;28;20821;-86
2022/09/22 10:42:22;;;;;;;3.80;1.90;;;18.10;91.10;;;;;;5042070;28;20829;-87
2022/09/22 10:44:50;;;;;;;2.20;2.00;;;18.30;89.60;;;;;;5047224;28;20483;-87
2022/09/22 10:47:29;;;;;;;4.73;4.23;;;18.50;90.00;;;;;;5032907;28;20480;-86
2022/09/22 10:50:31;;;;;;;2.17;2.00;;;18.80;90.60;;;;;;5050408;28;20464;-87
2022/09/22 10:53:10;;;;;;;2.10;1.90;;;19.10;90.90;;;;;;5035700;28;20448;-87
2022/09/22 10:55:47;;;;;;;2.27;2.10;;;19.60;87.40;;;;;;5049422;28;20466;-87
2022/09/22 10:58:42;;;;;;;;;;;;;;;;;;;;;
2022/09/22 11:01:35;;;;;;;3.20;1.90;;;20.90;86.00;;;;;;5042572;28;20836;-86
2022/09/22 11:04:15;;;;;;;1.30;1.20;;;21.80;81.20;;;;;;5052894;28;20819;-85
2022/09/22 11:13:04;;;;;;;2.73;1.10;;;24.30;63.70;;;;;;5034317;28;20445;-87
2022/09/22 11:15:54;;;;;;;1.50;1.40;;;24.60;61.20;;;;;;5035846;28;20841;-87
2022/09/22 11:18:48;;;;;;;1.40;1.00;;;25.10;59.10;;;;;;5035225;28;20481;-87
2022/09/22 11:21:35;;;;;;;1.47;1.37;;;25.50;58.60;;;;;;5042225;28;20482;-89
2022/09/22 11:28:11;;;;;;;1.27;1.17;;;26.10;55.40;;;;;;5035166;28;20476;-90
2022/09/22 11:35:11;;;;;;;2.33;1.33;;;27.50;54.30;;;;;;5004436;28;20430;-88
2022/09/22 11:38:21;;;;;;;1.10;1.00;;;27.90;47.80;;;;;;5049543;28;20497;-88
2022/09/22 11:41:15;;;;;;;0.90;0.90;;;27.80;47.60;;;;;;5053075;28;20457;-85
2022/09/22 11:47:47;;;;;;;1.47;1.37;;;28.40;46.30;;;;;;5055301;28;20516;-83
2022/09/22 11:50:46;;;;;;;1.13;0.83;;;28.90;46.10;;;;;;5036400;28;20495;-84
2022/09/22 11:53:38;;;;;;;1.23;1.13;;;29.40;46.00;;;;;;5063115;28;20444;-84
2022/09/22 11:56:44;;;;;;;0.97;0.87;;;29.90;44.20;;;;;;5054601;28;20454;-84
2022/09/22 11:59:28;;;;;;;0.87;0.87;;;30.10;41.40;;;;;;5051434;28;20455;-84
2022/09/22 12:01:58;;;;;;;0.97;0.87;;;30.20;41.70;;;;;;5062336;22;20485;-83
2022/09/22 12:04:58;;;;;;;1.30;1.20;;;30.20;41.30;;;;;;5052932;28;20483;-83
2022/09/22 12:07:29;;;;;;;1.30;1.20;;;30.40;40.90;;;;;;5054251;28;20821;-83
2022/09/22 12:10:00;;;;;;;2.90;1.30;;;30.60;38.80;;;;;;5054072;28;20480;-84
2022/09/22 12:12:31;;;;;;;1.30;1.10;;;30.50;39.70;;;;;;5054503;28;20510;-84
2022/09/22 12:15:07;;;;;;;2.30;1.23;;;30.60;39.20;;;;;;5054202;28;20460;-83
2022/09/22 12:17:48;;;;;;;1.13;1.13;;;30.70;39.70;;;;;;5054286;28;20459;-84
2022/09/22 12:20:37;;;;;;;1.10;1.00;;;31.10;39.50;;;;;;5054043;28;20460;-83
2022/09/22 12:23:48;;;;;;;1.47;1.37;;;31.50;38.90;;;;;;5053493;28;20833;-84
2022/09/22 12:26:24;;;;;;;1.13;0.97;;;31.60;36.60;;;;;;5012793;28;21197;-84
2022/09/22 12:28:51;;;;;;;0.70;0.70;;;31.70;37.90;;;;;;5026159;28;20465;-85
2022/09/22 12:31:20;;;;;;;0.77;0.77;;;31.90;35.50;;;;;;5016760;28;20526;-84
2022/09/22 12:33:50;;;;;;;0.80;0.80;;;31.90;35.90;;;;;;5000175;28;21127;-83
2022/09/22 12:36:18;;;;;;;1.90;1.27;;;32.10;36.00;;;;;;5032710;28;20509;-83
2022/09/22 12:38:46;;;;;;;1.00;1.00;;;32.40;36.60;;;;;;5029435;28;20469;-85
2022/09/22 12:41:17;;;;;;;2.10;1.40;;;32.60;34.50;;;;;;5037136;28;20471;-85
2022/09/22 12:43:46;;;;;;;1.00;1.00;;;32.70;34.10;;;;;;5034120;28;20438;-83
2022/09/22 12:46:43;;;;;;;1.23;1.20;;;32.90;33.80;;;;;;5034096;28;20449;-85
2022/09/22 12:53:05;;;;;;;0.90;0.90;;;33.00;34.00;;;;;;5033116;28;20807;-85
2022/09/22 12:55:38;;;;;;;1.80;1.70;;;33.50;32.90;;;;;;5033651;28;20793;-85
2022/09/22 12:58:46;;;;;;;1.47;1.37;;;33.80;33.40;;;;;;5033096;28;20535;-85
2022/09/22 13:01:35;;;;;;;1.10;1.10;;;34.00;32.00;;;;;;5033071;28;20484;-84
2022/09/22 13:04:26;;;;;;;1.40;1.30;;;34.30;31.60;;;;;;5033216;28;20458;-84
2022/09/22 13:06:59;;;;;;;1.37;1.27;;;34.40;31.50;;;;;;5032625;28;20817;-85
2022/09/22 13:09:29;;;;;;;1.87;1.53;;;34.70;30.80;;;;;;5030168;28;20449;-85
2022/09/22 13:35:37;;;;;;;1.17;1.17;;;34.70;29.30;;;;;;4876499;28;20496;-85
2022/09/22 13:38:29;;;;;;;1.93;1.20;;;34.80;28.40;;;;;;4972880;28;20455;-86
2022/09/22 13:40:56;;;;;;;1.70;1.43;;;34.80;29.10;;;;;;4950726;28;20527;-81
2022/09/22 13:43:36;;;;;;;0.83;0.83;;;34.90;29.20;;;;;;5015860;28;20462;-85
2022/09/22 13:49:22;;;;;;;1.30;1.20;;;35.30;28.70;;;;;;5031899;28;20441;-85
2022/09/22 13:51:56;;;;;;;1.43;1.33;;;35.60;27.90;;;;;;5043328;28;20492;-85
2022/09/22 13:54:27;;;;;;;1.00;1.00;;;35.80;28.50;;;;;;5031124;28;20457;-82
2022/09/22 13:56:57;;;;;;;1.17;1.10;;;35.70;28.10;;;;;;5045485;28;20488;-85
2022/09/22 13:59:26;;;;;;;1.40;1.10;;;35.50;28.00;;;;;;5058179;28;20456;-85
2022/09/22 14:01:53;;;;;;;2.10;1.10;;;35.00;28.40;;;;;;5051888;28;20491;-84
2022/09/22 14:04:22;;;;;;;1.50;1.40;;;34.30;28.30;;;;;;5048812;28;20453;-85
2022/09/22 14:06:54;;;;;;;2.17;1.37;;;33.60;28.40;;;;;;5030798;28;20439;-85
2022/09/22 14:09:27;;;;;;;1.23;1.00;;;32.90;29.10;;;;;;5030808;28;20918;-86
2022/09/22 14:11:56;;;;;;;1.37;1.27;;;32.10;30.00;;;;;;5035362;28;20538;-85
2022/09/22 14:14:24;;;;;;;1.30;1.20;;;31.30;30.60;;;;;;5038735;28;20926;-84
2022/09/22 14:16:55;;;;;;;1.03;1.03;;;30.60;31.30;;;;;;5030742;28;20441;-85
2022/09/22 14:19:27;;;;;;;1.23;1.20;;;30.00;32.30;;;;;;5030371;28;20835;-80
2022/09/22 14:21:59;;;;;;;1.23;1.13;;;29.40;32.80;;;;;;5029446;28;20486;-84
2022/09/22 14:24:27;;;;;;;0.80;0.80;;;28.90;33.20;;;;;;5029602;28;20960;-84
2022/09/22 14:26:56;;;;;;;1.73;1.30;;;28.50;34.10;;;;;;5030106;28;20465;-85
2022/09/22 14:29:26;;;;;;;1.37;1.27;;;28.10;34.70;;;;;;5030464;28;20460;-85
2022/09/22 14:31:59;;;;;;;1.20;1.10;;;27.60;35.10;;;;;;5029246;28;20486;-84
2022/09/22 14:34:30;;;;;;;1.60;1.43;;;27.30;35.10;;;;;;5032022;28;20461;-84
2022/09/22 14:36:59;;;;;;;1.10;1.10;;;27.00;35.30;;;;;;5030597;28;20454;-83
2022/09/22 14:39:32;;;;;;;1.50;1.40;;;26.80;36.10;;;;;;5025107;28;20928;-81
2022/09/22 14:42:10;;;;;;;1.10;1.10;;;26.70;36.60;;;;;;5030238;28;20511;-84
2022/09/22 14:44:43;;;;;;;0.80;0.80;;;26.60;36.90;;;;;;5029810;28;20468;-83
2022/09/22 14:47:22;;;;;;;1.40;1.30;;;26.60;37.00;;;;;;5032395;28;20513;-84
2022/09/22 14:50:02;;;;;;;1.40;1.30;;;26.50;37.10;;;;;;5037178;28;20547;-83
2022/09/22 14:52:33;;;;;;;2.53;1.17;;;26.40;37.00;;;;;;5036307;28;20545;-83
2022/09/22 14:55:06;;;;;;;1.07;1.07;;;26.10;37.60;;;;;;5032613;28;20460;-84
2022/09/22 14:57:34;;;;;;;1.10;1.10;;;26.00;37.90;;;;;;5034160;28;20527;-79
2022/09/22 15:02:52;;;;;;;1.37;1.27;;;25.50;37.80;;;;;;5032614;28;20995;-80
2022/09/22 15:05:25;;;;;;;1.37;1.37;;;25.30;38.10;;;;;;5034603;28;20797;-78
2022/09/22 15:07:53;;;;;;;1.13;1.13;;;25.60;38.60;;;;;;5033472;28;20460;-79
2022/09/22 15:10:23;;;;;;;1.03;1.00;;;26.10;38.20;;;;;;5033981;28;20495;-79
2022/09/22 15:12:54;;;;;;;2.53;1.70;;;26.40;37.40;;;;;;5026240;28;20516;-85
2022/09/22 15:15:26;;;;;;;1.60;1.50;;;26.40;37.50;;;;;;5035397;28;20466;-83
2022/09/22 15:18:33;;;;;;;2.30;1.47;;;26.10;37.60;;;;;;5033219;28;20503;-85
2022/09/22 15:21:10;;;;;;;14.63;6.90;;;25.70;38.90;;;;;;5037517;28;20531;-83
2022/09/22 15:23:41;;;;;;;6.70;2.20;;;25.10;38.70;;;;;;5034034;28;20806;-85
2022/09/22 15:26:15;;;;;;;1.10;1.10;;;24.60;39.20;;;;;;5033711;28;20812;-84
2022/09/22 15:28:44;;;;;;;1.40;1.30;;;24.30;39.90;;;;;;5046730;28;20449;-83